sensor_id;sensor_type;location;lat;lon;timestamp;temperature;humidity
30399;DHT22;17195;50.838;7.214;2023-05-07T00:01:23;13.50;99.90
30399;DHT22;17195;50.838;7.214;2023-05-07T00:03:49;13.50;99.90
30399;DHT22;17195;50.838;7.214;2023-05-07T00:06:14;13.50;99.90
30399;DHT22;17195;50.838;7.214;2023-05-07T00:08:40;13.50;99.90
30399;DHT22;17195;50.838;7.214;2023-05-07T00:11:05;13.40;99.90
30399;DHT22;17195;50.838;7.214;2023-05-07T00:13:31;13.40;99.90
30399;DHT22;17195;50.838;7.214;2023-05-07T00:16:03;13.30;99.90
30399;DHT22;17195;50.838;7.214;2023-05-07T00:18:29;13.30;99.90
30399;DHT22;17195;50.838;7.214;2023-05-07T00:20:55;13.30;99.90
30399;DHT22;17195;50.838;7.214;2023-05-07T00:23:21;13.30;99.90
30399;DHT22;17195;50.838;7.214;2023-05-07T00:25:47;13.30;99.90
30399;DHT22;17195;50.838;7.214;2023-05-07T00:28:13;13.30;99.90
30399;DHT22;17195;50.838;7.214;2023-05-07T00:30:38;13.30;99.90
30399;DHT22;17195;50.838;7.214;2023-05-07T00:33:04;13.30;99.90
30399;DHT22;17195;50.838;7.214;2023-05-07T00:35:29;13.20;99.90
30399;DHT22;17195;50.838;7.214;2023-05-07T00:37:55;13.30;99.90
30399;DHT22;17195;50.838;7.214;2023-05-07T00:40:21;13.30;99.90
30399;DHT22;17195;50.838;7.214;2023-05-07T00:42:47;13.30;99.90
30399;DHT22;17195;50.838;7.214;2023-05-07T00:45:15;13.30;99.90
30399;DHT22;17195;50.838;7.214;2023-05-07T00:47:41;13.30;99.90
30399;DHT22;17195;50.838;7.214;2023-05-07T00:50:08;13.30;99.90
30399;DHT22;17195;50.838;7.214;2023-05-07T00:52:34;13.30;99.90
30399;DHT22;17195;50.838;7.214;2023-05-07T00:55:04;13.20;99.90
30399;DHT22;17195;50.838;7.214;2023-05-07T00:57:39;13.20;99.90
30399;DHT22;17195;50.838;7.214;2023-05-07T01:00:06;13.20;99.90
30399;DHT22;17195;50.838;7.214;2023-05-07T01:02:34;13.30;99.90
30399;DHT22;17195;50.838;7.214;2023-05-07T01:05:00;13.20;99.90
30399;DHT22;17195;50.838;7.214;2023-05-07T01:07:26;13.30;99.90
30399;DHT22;17195;50.838;7.214;2023-05-07T01:09:53;13.30;99.90
30399;DHT22;17195;50.838;7.214;2023-05-07T01:12:19;13.30;99.90
30399;DHT22;17195;50.838;7.214;2023-05-07T01:14:44;13.30;99.90
30399;DHT22;17195;50.838;7.214;2023-05-07T01:17:10;13.30;99.90
30399;DHT22;17195;50.838;7.214;2023-05-07T01:19:36;13.30;99.90
30399;DHT22;17195;50.838;7.214;2023-05-07T01:22:03;13.30;99.90
30399;DHT22;17195;50.838;7.214;2023-05-07T01:24:31;13.30;99.90
30399;DHT22;17195;50.838;7.214;2023-05-07T01:26:56;13.20;99.90
30399;DHT22;17195;50.838;7.214;2023-05-07T01:29:22;13.20;99.90
30399;DHT22;17195;50.838;7.214;2023-05-07T01:31:48;13.30;99.90
30399;DHT22;17195;50.838;7.214;2023-05-07T01:34:15;13.30;99.90
30399;DHT22;17195;50.838;7.214;2023-05-07T01:36:43;13.30;99.90
30399;DHT22;17195;50.838;7.214;2023-05-07T01:39:09;13.20;99.90
30399;DHT22;17195;50.838;7.214;2023-05-07T01:41:35;13.30;99.90
30399;DHT22;17195;50.838;7.214;2023-05-07T01:44:01;13.30;99.90
30399;DHT22;17195;50.838;7.214;2023-05-07T01:46:28;13.30;99.90
30399;DHT22;17195;50.838;7.214;2023-05-07T01:48:54;13.30;99.90
30399;DHT22;17195;50.838;7.214;2023-05-07T01:51:19;13.30;99.90
30399;DHT22;17195;50.838;7.214;2023-05-07T01:53:46;13.30;99.90
30399;DHT22;17195;50.838;7.214;2023-05-07T01:56:19;13.20;99.90
30399;DHT22;17195;50.838;7.214;2023-05-07T01:58:45;13.20;99.90
30399;DHT22;17195;50.838;7.214;2023-05-07T02:01:14;13.20;99.90
30399;DHT22;17195;50.838;7.214;2023-05-07T02:03:40;13.20;99.90
30399;DHT22;17195;50.838;7.214;2023-05-07T02:06:05;13.20;99.90
30399;DHT22;17195;50.838;7.214;2023-05-07T02:08:31;13.20;99.90
30399;DHT22;17195;50.838;7.214;2023-05-07T02:10:56;13.30;99.90
30399;DHT22;17195;50.838;7.214;2023-05-07T02:13:22;13.30;99.90
30399;DHT22;17195;50.838;7.214;2023-05-07T02:15:49;13.30;99.90
30399;DHT22;17195;50.838;7.214;2023-05-07T02:18:16;13.30;99.90
30399;DHT22;17195;50.838;7.214;2023-05-07T02:20:42;13.20;99.90
30399;DHT22;17195;50.838;7.214;2023-05-07T02:23:08;13.30;99.90
30399;DHT22;17195;50.838;7.214;2023-05-07T02:25:34;13.20;99.90
30399;DHT22;17195;50.838;7.214;2023-05-07T02:27:59;13.30;99.90
30399;DHT22;17195;50.838;7.214;2023-05-07T02:30:25;13.20;99.90
30399;DHT22;17195;50.838;7.214;2023-05-07T02:32:51;13.20;99.90
30399;DHT22;17195;50.838;7.214;2023-05-07T02:35:16;13.20;99.90
30399;DHT22;17195;50.838;7.214;2023-05-07T02:37:42;13.20;99.90
30399;DHT22;17195;50.838;7.214;2023-05-07T02:40:08;13.20;99.90
30399;DHT22;17195;50.838;7.214;2023-05-07T02:42:34;13.20;99.90
30399;DHT22;17195;50.838;7.214;2023-05-07T02:45:00;13.20;99.90
30399;DHT22;17195;50.838;7.214;2023-05-07T02:47:25;13.20;99.90
30399;DHT22;17195;50.838;7.214;2023-05-07T02:49:53;13.30;99.90
30399;DHT22;17195;50.838;7.214;2023-05-07T02:52:19;13.20;99.90
30399;DHT22;17195;50.838;7.214;2023-05-07T02:54:45;13.20;99.90
30399;DHT22;17195;50.838;7.214;2023-05-07T02:57:10;13.20;99.90
30399;DHT22;17195;50.838;7.214;2023-05-07T02:59:36;13.20;99.90
30399;DHT22;17195;50.838;7.214;2023-05-07T03:02:02;13.20;99.90
30399;DHT22;17195;50.838;7.214;2023-05-07T03:04:27;13.20;99.90
30399;DHT22;17195;50.838;7.214;2023-05-07T03:06:53;13.20;99.90
30399;DHT22;17195;50.838;7.214;2023-05-07T03:09:18;13.10;99.90
30399;DHT22;17195;50.838;7.214;2023-05-07T03:11:44;13.10;99.90
30399;DHT22;17195;50.838;7.214;2023-05-07T03:14:10;13.10;99.90
30399;DHT22;17195;50.838;7.214;2023-05-07T03:16:35;13.00;99.90
30399;DHT22;17195;50.838;7.214;2023-05-07T03:19:01;13.00;99.90
30399;DHT22;17195;50.838;7.214;2023-05-07T03:21:27;13.00;99.90
30399;DHT22;17195;50.838;7.214;2023-05-07T03:23:52;13.00;99.90
30399;DHT22;17195;50.838;7.214;2023-05-07T03:26:18;13.00;99.90
30399;DHT22;17195;50.838;7.214;2023-05-07T03:28:44;13.00;99.90
30399;DHT22;17195;50.838;7.214;2023-05-07T03:31:09;13.10;99.90
30399;DHT22;17195;50.838;7.214;2023-05-07T03:33:35;13.10;99.90
30399;DHT22;17195;50.838;7.214;2023-05-07T03:36:04;13.00;99.90
30399;DHT22;17195;50.838;7.214;2023-05-07T03:38:29;13.10;99.90
30399;DHT22;17195;50.838;7.214;2023-05-07T03:40:55;13.10;99.90
30399;DHT22;17195;50.838;7.214;2023-05-07T03:43:21;13.00;99.90
30399;DHT22;17195;50.838;7.214;2023-05-07T03:45:46;13.00;99.90
30399;DHT22;17195;50.838;7.214;2023-05-07T03:48:12;13.00;99.90
30399;DHT22;17195;50.838;7.214;2023-05-07T03:50:38;13.00;99.90
30399;DHT22;17195;50.838;7.214;2023-05-07T03:53:03;13.00;99.90
30399;DHT22;17195;50.838;7.214;2023-05-07T03:55:29;13.10;99.90
30399;DHT22;17195;50.838;7.214;2023-05-07T03:57:54;13.10;99.90
30399;DHT22;17195;50.838;7.214;2023-05-07T04:00:21;13.10;99.90
30399;DHT22;17195;50.838;7.214;2023-05-07T04:02:47;13.00;99.90
30399;DHT22;17195;50.838;7.214;2023-05-07T04:05:14;13.00;99.90
30399;DHT22;17195;50.838;7.214;2023-05-07T04:07:40;13.00;99.90
30399;DHT22;17195;50.838;7.214;2023-05-07T04:10:06;13.00;99.90
30399;DHT22;17195;50.838;7.214;2023-05-07T04:12:31;13.00;99.90
30399;DHT22;17195;50.838;7.214;2023-05-07T04:14:57;13.10;99.90
30399;DHT22;17195;50.838;7.214;2023-05-07T04:17:22;13.10;99.90
30399;DHT22;17195;50.838;7.214;2023-05-07T04:19:48;13.10;99.90
30399;DHT22;17195;50.838;7.214;2023-05-07T04:22:14;13.10;99.90
30399;DHT22;17195;50.838;7.214;2023-05-07T04:24:39;13.10;99.90
30399;DHT22;17195;50.838;7.214;2023-05-07T04:27:05;13.10;99.90
30399;DHT22;17195;50.838;7.214;2023-05-07T04:29:31;13.10;99.90
30399;DHT22;17195;50.838;7.214;2023-05-07T04:31:57;13.10;99.90
30399;DHT22;17195;50.838;7.214;2023-05-07T04:34:24;13.20;99.90
30399;DHT22;17195;50.838;7.214;2023-05-07T04:36:49;13.20;99.90
30399;DHT22;17195;50.838;7.214;2023-05-07T04:39:15;13.30;99.90
30399;DHT22;17195;50.838;7.214;2023-05-07T04:41:41;13.30;99.90
30399;DHT22;17195;50.838;7.214;2023-05-07T04:44:06;13.40;99.90
30399;DHT22;17195;50.838;7.214;2023-05-07T04:46:32;13.40;99.90
30399;DHT22;17195;50.838;7.214;2023-05-07T04:48:57;13.50;99.90
30399;DHT22;17195;50.838;7.214;2023-05-07T04:51:23;13.50;99.90
30399;DHT22;17195;50.838;7.214;2023-05-07T04:53:49;13.50;99.90
30399;DHT22;17195;50.838;7.214;2023-05-07T04:56:14;13.50;99.90
30399;DHT22;17195;50.838;7.214;2023-05-07T04:58:40;13.60;99.90
30399;DHT22;17195;50.838;7.214;2023-05-07T05:01:05;13.60;99.90
30399;DHT22;17195;50.838;7.214;2023-05-07T05:03:31;13.60;99.90
30399;DHT22;17195;50.838;7.214;2023-05-07T05:05:57;13.60;99.90
30399;DHT22;17195;50.838;7.214;2023-05-07T05:08:24;13.70;99.90
30399;DHT22;17195;50.838;7.214;2023-05-07T05:10:50;13.70;99.90
30399;DHT22;17195;50.838;7.214;2023-05-07T05:13:16;13.70;99.90
30399;DHT22;17195;50.838;7.214;2023-05-07T05:15:41;13.70;99.90
30399;DHT22;17195;50.838;7.214;2023-05-07T05:18:07;13.80;99.90
30399;DHT22;17195;50.838;7.214;2023-05-07T05:20:32;13.80;99.90
30399;DHT22;17195;50.838;7.214;2023-05-07T05:22:58;13.80;99.90
30399;DHT22;17195;50.838;7.214;2023-05-07T05:25:24;13.90;99.90
30399;DHT22;17195;50.838;7.214;2023-05-07T05:27:49;14.00;99.90
30399;DHT22;17195;50.838;7.214;2023-05-07T05:30:15;14.10;99.90
30399;DHT22;17195;50.838;7.214;2023-05-07T05:32:40;14.20;99.90
30399;DHT22;17195;50.838;7.214;2023-05-07T05:35:06;14.30;99.90
30399;DHT22;17195;50.838;7.214;2023-05-07T05:37:32;14.40;99.90
30399;DHT22;17195;50.838;7.214;2023-05-07T05:39:57;14.50;99.90
30399;DHT22;17195;50.838;7.214;2023-05-07T05:42:23;14.70;99.90
30399;DHT22;17195;50.838;7.214;2023-05-07T05:44:49;14.80;99.90
30399;DHT22;17195;50.838;7.214;2023-05-07T05:47:14;14.90;99.90
30399;DHT22;17195;50.838;7.214;2023-05-07T05:49:40;15.00;99.90
30399;DHT22;17195;50.838;7.214;2023-05-07T05:52:05;15.10;99.90
30399;DHT22;17195;50.838;7.214;2023-05-07T05:54:31;15.20;99.90
30399;DHT22;17195;50.838;7.214;2023-05-07T05:56:56;15.20;99.90
30399;DHT22;17195;50.838;7.214;2023-05-07T05:59:22;15.30;99.90
30399;DHT22;17195;50.838;7.214;2023-05-07T06:01:48;15.30;99.90
30399;DHT22;17195;50.838;7.214;2023-05-07T06:04:14;15.40;99.90
30399;DHT22;17195;50.838;7.214;2023-05-07T06:06:39;15.50;99.90
30399;DHT22;17195;50.838;7.214;2023-05-07T06:09:05;15.60;99.90
30399;DHT22;17195;50.838;7.214;2023-05-07T06:11:31;15.70;99.90
30399;DHT22;17195;50.838;7.214;2023-05-07T06:13:57;15.80;99.90
30399;DHT22;17195;50.838;7.214;2023-05-07T06:16:24;15.90;99.90
30399;DHT22;17195;50.838;7.214;2023-05-07T06:18:50;15.90;99.90
30399;DHT22;17195;50.838;7.214;2023-05-07T06:21:15;16.00;99.90
30399;DHT22;17195;50.838;7.214;2023-05-07T06:23:41;16.10;99.90
30399;DHT22;17195;50.838;7.214;2023-05-07T06:26:07;16.20;99.90
30399;DHT22;17195;50.838;7.214;2023-05-07T06:28:32;16.30;99.90
30399;DHT22;17195;50.838;7.214;2023-05-07T06:31:20;16.40;99.90
30399;DHT22;17195;50.838;7.214;2023-05-07T06:33:49;16.60;99.90
30399;DHT22;17195;50.838;7.214;2023-05-07T06:36:15;16.80;99.90
30399;DHT22;17195;50.838;7.214;2023-05-07T06:38:40;17.00;99.90
30399;DHT22;17195;50.838;7.214;2023-05-07T06:41:06;17.10;99.90
30399;DHT22;17195;50.838;7.214;2023-05-07T06:43:32;17.30;99.90
30399;DHT22;17195;50.838;7.214;2023-05-07T06:45:58;17.40;99.90
30399;DHT22;17195;50.838;7.214;2023-05-07T06:48:23;17.50;99.90
30399;DHT22;17195;50.838;7.214;2023-05-07T06:50:49;17.60;99.90
30399;DHT22;17195;50.838;7.214;2023-05-07T06:53:15;17.70;99.90
30399;DHT22;17195;50.838;7.214;2023-05-07T06:55:41;17.80;99.90
30399;DHT22;17195;50.838;7.214;2023-05-07T06:58:07;17.90;99.90
30399;DHT22;17195;50.838;7.214;2023-05-07T07:00:32;18.00;99.90
30399;DHT22;17195;50.838;7.214;2023-05-07T07:02:59;18.10;99.90
30399;DHT22;17195;50.838;7.214;2023-05-07T07:05:25;18.20;99.90
30399;DHT22;17195;50.838;7.214;2023-05-07T07:07:51;18.30;99.90
30399;DHT22;17195;50.838;7.214;2023-05-07T07:10:20;18.40;99.90
30399;DHT22;17195;50.838;7.214;2023-05-07T07:12:45;18.50;99.90
30399;DHT22;17195;50.838;7.214;2023-05-07T07:15:11;18.60;99.90
30399;DHT22;17195;50.838;7.214;2023-05-07T07:17:37;18.70;99.90
30399;DHT22;17195;50.838;7.214;2023-05-07T07:20:03;18.80;99.90
30399;DHT22;17195;50.838;7.214;2023-05-07T07:22:29;18.90;99.90
30399;DHT22;17195;50.838;7.214;2023-05-07T07:24:54;19.00;99.90
30399;DHT22;17195;50.838;7.214;2023-05-07T07:27:20;19.10;99.90
30399;DHT22;17195;50.838;7.214;2023-05-07T07:29:45;19.30;99.90
30399;DHT22;17195;50.838;7.214;2023-05-07T07:32:11;19.40;99.90
30399;DHT22;17195;50.838;7.214;2023-05-07T07:34:36;19.50;99.90
30399;DHT22;17195;50.838;7.214;2023-05-07T07:37:02;19.60;99.90
30399;DHT22;17195;50.838;7.214;2023-05-07T07:39:31;19.70;99.90
30399;DHT22;17195;50.838;7.214;2023-05-07T07:41:57;19.80;99.90
30399;DHT22;17195;50.838;7.214;2023-05-07T07:44:22;19.80;99.90
30399;DHT22;17195;50.838;7.214;2023-05-07T07:46:48;19.90;99.90
30399;DHT22;17195;50.838;7.214;2023-05-07T07:49:14;19.90;99.90
30399;DHT22;17195;50.838;7.214;2023-05-07T07:51:40;19.90;99.90
30399;DHT22;17195;50.838;7.214;2023-05-07T07:54:06;19.90;99.90
30399;DHT22;17195;50.838;7.214;2023-05-07T07:56:32;20.00;99.90
30399;DHT22;17195;50.838;7.214;2023-05-07T07:58:58;20.00;99.90
30399;DHT22;17195;50.838;7.214;2023-05-07T08:01:24;20.10;99.90
30399;DHT22;17195;50.838;7.214;2023-05-07T08:03:50;20.20;99.90
30399;DHT22;17195;50.838;7.214;2023-05-07T08:06:15;20.30;99.90
30399;DHT22;17195;50.838;7.214;2023-05-07T08:08:41;20.40;99.90
30399;DHT22;17195;50.838;7.214;2023-05-07T08:11:06;20.60;99.90
30399;DHT22;17195;50.838;7.214;2023-05-07T08:13:32;20.70;99.90
30399;DHT22;17195;50.838;7.214;2023-05-07T08:15:58;20.90;99.90
30399;DHT22;17195;50.838;7.214;2023-05-07T08:18:24;21.00;99.90
30399;DHT22;17195;50.838;7.214;2023-05-07T08:20:50;21.10;99.90
30399;DHT22;17195;50.838;7.214;2023-05-07T08:23:16;21.30;99.90
30399;DHT22;17195;50.838;7.214;2023-05-07T08:25:41;21.40;99.90
30399;DHT22;17195;50.838;7.214;2023-05-07T08:28:08;21.30;99.90
30399;DHT22;17195;50.838;7.214;2023-05-07T08:30:33;21.40;99.90
30399;DHT22;17195;50.838;7.214;2023-05-07T08:33:00;21.50;99.90
30399;DHT22;17195;50.838;7.214;2023-05-07T08:35:25;21.60;99.90
30399;DHT22;17195;50.838;7.214;2023-05-07T08:37:52;21.70;99.90
30399;DHT22;17195;50.838;7.214;2023-05-07T08:40:18;21.80;99.90
30399;DHT22;17195;50.838;7.214;2023-05-07T08:42:44;21.90;99.90
30399;DHT22;17195;50.838;7.214;2023-05-07T08:45:10;22.00;99.90
30399;DHT22;17195;50.838;7.214;2023-05-07T08:47:43;22.10;99.90
30399;DHT22;17195;50.838;7.214;2023-05-07T08:50:10;22.20;99.90
30399;DHT22;17195;50.838;7.214;2023-05-07T08:52:36;22.40;99.90
30399;DHT22;17195;50.838;7.214;2023-05-07T08:55:03;22.50;99.90
30399;DHT22;17195;50.838;7.214;2023-05-07T08:57:28;22.60;99.90
30399;DHT22;17195;50.838;7.214;2023-05-07T08:59:54;22.80;99.90
30399;DHT22;17195;50.838;7.214;2023-05-07T09:02:20;22.90;99.90
30399;DHT22;17195;50.838;7.214;2023-05-07T09:04:46;23.00;99.90
30399;DHT22;17195;50.838;7.214;2023-05-07T09:07:11;23.20;99.90
30399;DHT22;17195;50.838;7.214;2023-05-07T09:09:37;23.10;99.90
30399;DHT22;17195;50.838;7.214;2023-05-07T09:12:03;23.20;99.90
30399;DHT22;17195;50.838;7.214;2023-05-07T09:14:29;23.20;99.90
30399;DHT22;17195;50.838;7.214;2023-05-07T09:16:56;23.30;99.90
30399;DHT22;17195;50.838;7.214;2023-05-07T09:19:26;23.30;99.90
30399;DHT22;17195;50.838;7.214;2023-05-07T09:21:58;23.40;99.90
30399;DHT22;17195;50.838;7.214;2023-05-07T09:24:25;23.50;99.90
30399;DHT22;17195;50.838;7.214;2023-05-07T09:26:50;23.40;99.90
30399;DHT22;17195;50.838;7.214;2023-05-07T09:29:16;23.50;99.90
30399;DHT22;17195;50.838;7.214;2023-05-07T09:31:42;23.40;99.90
30399;DHT22;17195;50.838;7.214;2023-05-07T09:34:08;23.40;99.90
30399;DHT22;17195;50.838;7.214;2023-05-07T09:36:33;23.40;99.90
30399;DHT22;17195;50.838;7.214;2023-05-07T09:39:00;23.30;99.90
30399;DHT22;17195;50.838;7.214;2023-05-07T09:41:26;23.30;99.90
30399;DHT22;17195;50.838;7.214;2023-05-07T09:43:55;23.30;99.90
30399;DHT22;17195;50.838;7.214;2023-05-07T09:46:25;23.30;99.90
30399;DHT22;17195;50.838;7.214;2023-05-07T09:48:53;23.40;99.90
30399;DHT22;17195;50.838;7.214;2023-05-07T09:51:25;23.40;99.90
30399;DHT22;17195;50.838;7.214;2023-05-07T09:53:53;23.60;99.90
30399;DHT22;17195;50.838;7.214;2023-05-07T09:56:19;23.70;99.90
30399;DHT22;17195;50.838;7.214;2023-05-07T09:58:46;23.90;99.90
30399;DHT22;17195;50.838;7.214;2023-05-07T10:01:12;24.20;99.90
30399;DHT22;17195;50.838;7.214;2023-05-07T10:03:40;24.40;99.90
30399;DHT22;17195;50.838;7.214;2023-05-07T10:06:09;24.70;99.90
30399;DHT22;17195;50.838;7.214;2023-05-07T10:08:36;24.80;99.90
30399;DHT22;17195;50.838;7.214;2023-05-07T10:11:04;24.90;99.90
30399;DHT22;17195;50.838;7.214;2023-05-07T10:13:29;25.00;99.90
30399;DHT22;17195;50.838;7.214;2023-05-07T10:15:55;25.20;99.90
30399;DHT22;17195;50.838;7.214;2023-05-07T10:18:22;25.30;99.90
30399;DHT22;17195;50.838;7.214;2023-05-07T10:20:55;25.30;99.90
30399;DHT22;17195;50.838;7.214;2023-05-07T10:23:24;25.40;99.90
30399;DHT22;17195;50.838;7.214;2023-05-07T10:25:51;25.50;99.90
30399;DHT22;17195;50.838;7.214;2023-05-07T10:28:19;25.60;99.90
30399;DHT22;17195;50.838;7.214;2023-05-07T10:33:25;26.00;99.90
30399;DHT22;17195;50.838;7.214;2023-05-07T10:35:57;26.10;99.90
30399;DHT22;17195;50.838;7.214;2023-05-07T10:38:24;26.10;99.90
30399;DHT22;17195;50.838;7.214;2023-05-07T10:40:51;26.30;99.90
30399;DHT22;17195;50.838;7.214;2023-05-07T10:43:16;26.30;99.90
30399;DHT22;17195;50.838;7.214;2023-05-07T10:45:42;26.30;99.90
30399;DHT22;17195;50.838;7.214;2023-05-07T10:48:10;26.20;99.90
30399;DHT22;17195;50.838;7.214;2023-05-07T10:50:37;26.10;99.90
30399;DHT22;17195;50.838;7.214;2023-05-07T10:55:51;26.20;99.90
30399;DHT22;17195;50.838;7.214;2023-05-07T10:58:27;26.30;99.50
30399;DHT22;17195;50.838;7.214;2023-05-07T11:00:58;26.40;99.30
30399;DHT22;17195;50.838;7.214;2023-05-07T11:03:24;26.40;98.30
30399;DHT22;17195;50.838;7.214;2023-05-07T11:06:13;26.50;97.30
30399;DHT22;17195;50.838;7.214;2023-05-07T11:08:56;26.60;97.10
30399;DHT22;17195;50.838;7.214;2023-05-07T11:11:47;26.50;96.90
30399;DHT22;17195;50.838;7.214;2023-05-07T11:14:14;26.60;97.10
30399;DHT22;17195;50.838;7.214;2023-05-07T11:16:41;26.60;96.70
30399;DHT22;17195;50.838;7.214;2023-05-07T11:19:08;26.70;94.90
30399;DHT22;17195;50.838;7.214;2023-05-07T11:21:41;26.80;94.00
30399;DHT22;17195;50.838;7.214;2023-05-07T11:24:08;26.80;92.50
30399;DHT22;17195;50.838;7.214;2023-05-07T11:26:49;26.70;93.00
30399;DHT22;17195;50.838;7.214;2023-05-07T11:29:16;26.80;93.90
30399;DHT22;17195;50.838;7.214;2023-05-07T11:31:42;26.80;94.00
30399;DHT22;17195;50.838;7.214;2023-05-07T11:34:08;27.00;93.90
30399;DHT22;17195;50.838;7.214;2023-05-07T11:36:34;27.00;93.80
30399;DHT22;17195;50.838;7.214;2023-05-07T11:39:01;27.20;93.90
30399;DHT22;17195;50.838;7.214;2023-05-07T11:41:36;27.20;92.20
30399;DHT22;17195;50.838;7.214;2023-05-07T11:44:05;27.20;91.30
30399;DHT22;17195;50.838;7.214;2023-05-07T11:46:30;27.00;91.40
30399;DHT22;17195;50.838;7.214;2023-05-07T11:48:56;27.10;91.40
30399;DHT22;17195;50.838;7.214;2023-05-07T11:51:25;27.20;90.30
30399;DHT22;17195;50.838;7.214;2023-05-07T11:53:52;27.30;90.00
30399;DHT22;17195;50.838;7.214;2023-05-07T11:56:18;27.40;89.60
30399;DHT22;17195;50.838;7.214;2023-05-07T11:58:45;27.50;89.30
30399;DHT22;17195;50.838;7.214;2023-05-07T12:01:12;27.70;89.10
30399;DHT22;17195;50.838;7.214;2023-05-07T12:03:42;28.00;88.10
30399;DHT22;17195;50.838;7.214;2023-05-07T12:06:09;28.00;85.70
30399;DHT22;17195;50.838;7.214;2023-05-07T12:08:37;28.10;85.90
30399;DHT22;17195;50.838;7.214;2023-05-07T12:11:03;28.20;84.40
30399;DHT22;17195;50.838;7.214;2023-05-07T12:13:32;28.10;83.40
30399;DHT22;17195;50.838;7.214;2023-05-07T12:15:57;28.20;86.00
30399;DHT22;17195;50.838;7.214;2023-05-07T12:18:23;28.20;85.30
30399;DHT22;17195;50.838;7.214;2023-05-07T12:20:50;28.10;84.70
30399;DHT22;17195;50.838;7.214;2023-05-07T12:23:16;28.00;83.80
30399;DHT22;17195;50.838;7.214;2023-05-07T12:25:43;27.90;83.50
30399;DHT22;17195;50.838;7.214;2023-05-07T12:28:16;27.70;81.50
30399;DHT22;17195;50.838;7.214;2023-05-07T12:30:46;27.40;83.40
30399;DHT22;17195;50.838;7.214;2023-05-07T12:33:13;26.90;84.40
30399;DHT22;17195;50.838;7.214;2023-05-07T12:35:42;26.70;85.50
30399;DHT22;17195;50.838;7.214;2023-05-07T12:38:13;26.40;84.90
30399;DHT22;17195;50.838;7.214;2023-05-07T12:40:40;26.20;84.40
30399;DHT22;17195;50.838;7.214;2023-05-07T12:43:07;26.00;86.60
30399;DHT22;17195;50.838;7.214;2023-05-07T12:45:37;25.90;88.00
30399;DHT22;17195;50.838;7.214;2023-05-07T12:48:04;25.60;85.20
30399;DHT22;17195;50.838;7.214;2023-05-07T12:50:32;25.40;86.20
30399;DHT22;17195;50.838;7.214;2023-05-07T12:52:58;25.20;85.60
30399;DHT22;17195;50.838;7.214;2023-05-07T12:55:24;24.90;86.50
30399;DHT22;17195;50.838;7.214;2023-05-07T12:57:50;24.80;88.10
30399;DHT22;17195;50.838;7.214;2023-05-07T13:00:17;24.60;87.30
30399;DHT22;17195;50.838;7.214;2023-05-07T13:02:44;24.60;88.90
30399;DHT22;17195;50.838;7.214;2023-05-07T13:05:10;24.50;89.30
30399;DHT22;17195;50.838;7.214;2023-05-07T13:07:36;24.40;90.10
30399;DHT22;17195;50.838;7.214;2023-05-07T13:10:03;24.40;90.60
30399;DHT22;17195;50.838;7.214;2023-05-07T13:12:29;24.40;90.90
30399;DHT22;17195;50.838;7.214;2023-05-07T13:14:55;24.30;91.30
30399;DHT22;17195;50.838;7.214;2023-05-07T13:17:20;24.20;91.80
30399;DHT22;17195;50.838;7.214;2023-05-07T13:19:46;24.10;94.20
30399;DHT22;17195;50.838;7.214;2023-05-07T13:22:12;23.90;96.50
30399;DHT22;17195;50.838;7.214;2023-05-07T13:24:37;23.80;95.10
30399;DHT22;17195;50.838;7.214;2023-05-07T13:27:03;23.80;97.90
30399;DHT22;17195;50.838;7.214;2023-05-07T13:29:29;23.80;96.50
30399;DHT22;17195;50.838;7.214;2023-05-07T13:31:58;23.90;97.50
30399;DHT22;17195;50.838;7.214;2023-05-07T13:34:24;24.10;97.60
30399;DHT22;17195;50.838;7.214;2023-05-07T13:36:50;24.00;99.10
30399;DHT22;17195;50.838;7.214;2023-05-07T13:39:15;24.10;99.90
30399;DHT22;17195;50.838;7.214;2023-05-07T13:41:41;23.90;99.90
30399;DHT22;17195;50.838;7.214;2023-05-07T13:44:07;23.80;99.90
30399;DHT22;17195;50.838;7.214;2023-05-07T13:46:32;23.90;99.90
30399;DHT22;17195;50.838;7.214;2023-05-07T13:48:58;24.00;99.90
30399;DHT22;17195;50.838;7.214;2023-05-07T13:51:23;24.00;99.90
30399;DHT22;17195;50.838;7.214;2023-05-07T13:53:49;24.00;99.90
30399;DHT22;17195;50.838;7.214;2023-05-07T13:56:14;24.10;99.90
30399;DHT22;17195;50.838;7.214;2023-05-07T13:58:40;24.10;99.90
30399;DHT22;17195;50.838;7.214;2023-05-07T14:01:06;24.20;99.90
30399;DHT22;17195;50.838;7.214;2023-05-07T14:03:31;24.50;99.90
30399;DHT22;17195;50.838;7.214;2023-05-07T14:05:59;24.80;99.90
30399;DHT22;17195;50.838;7.214;2023-05-07T14:08:26;25.00;99.90
30399;DHT22;17195;50.838;7.214;2023-05-07T14:10:52;25.00;99.90
30399;DHT22;17195;50.838;7.214;2023-05-07T14:13:18;25.00;99.90
30399;DHT22;17195;50.838;7.214;2023-05-07T14:15:43;25.00;99.90
30399;DHT22;17195;50.838;7.214;2023-05-07T14:18:12;24.80;99.90
30399;DHT22;17195;50.838;7.214;2023-05-07T14:20:38;24.60;99.90
30399;DHT22;17195;50.838;7.214;2023-05-07T14:23:03;24.40;99.90
30399;DHT22;17195;50.838;7.214;2023-05-07T14:25:29;24.10;99.90
30399;DHT22;17195;50.838;7.214;2023-05-07T14:27:55;24.30;99.90
30399;DHT22;17195;50.838;7.214;2023-05-07T14:30:20;24.40;99.90
30399;DHT22;17195;50.838;7.214;2023-05-07T14:32:47;24.60;99.90
30399;DHT22;17195;50.838;7.214;2023-05-07T14:35:13;24.60;99.90
30399;DHT22;17195;50.838;7.214;2023-05-07T14:37:38;24.70;99.90
30399;DHT22;17195;50.838;7.214;2023-05-07T14:40:04;24.60;99.90
30399;DHT22;17195;50.838;7.214;2023-05-07T14:42:30;24.40;99.90
30399;DHT22;17195;50.838;7.214;2023-05-07T14:44:56;24.00;99.90
30399;DHT22;17195;50.838;7.214;2023-05-07T14:47:21;23.70;99.90
30399;DHT22;17195;50.838;7.214;2023-05-07T14:49:47;23.40;99.90
30399;DHT22;17195;50.838;7.214;2023-05-07T14:52:12;23.00;99.90
30399;DHT22;17195;50.838;7.214;2023-05-07T14:54:38;22.80;99.90
30399;DHT22;17195;50.838;7.214;2023-05-07T14:57:05;22.60;99.90
30399;DHT22;17195;50.838;7.214;2023-05-07T14:59:30;22.20;99.90
30399;DHT22;17195;50.838;7.214;2023-05-07T15:01:57;22.10;99.90
30399;DHT22;17195;50.838;7.214;2023-05-07T15:04:24;21.80;99.90
30399;DHT22;17195;50.838;7.214;2023-05-07T15:06:50;21.70;99.90
30399;DHT22;17195;50.838;7.214;2023-05-07T15:09:15;21.60;99.90
30399;DHT22;17195;50.838;7.214;2023-05-07T15:11:41;21.40;99.90
30399;DHT22;17195;50.838;7.214;2023-05-07T15:14:06;21.40;99.90
30399;DHT22;17195;50.838;7.214;2023-05-07T15:16:32;21.40;99.90
30399;DHT22;17195;50.838;7.214;2023-05-07T15:18:59;21.50;99.90
30399;DHT22;17195;50.838;7.214;2023-05-07T15:21:24;21.40;99.90
30399;DHT22;17195;50.838;7.214;2023-05-07T15:23:52;21.40;99.90
30399;DHT22;17195;50.838;7.214;2023-05-07T15:26:17;21.40;99.90
30399;DHT22;17195;50.838;7.214;2023-05-07T15:28:43;21.40;99.90
30399;DHT22;17195;50.838;7.214;2023-05-07T15:31:08;21.30;99.90